createdAt,value
2023-04-14T00:00:24.792Z,51.40
2023-04-14T00:01:27.729Z,51.44
2023-04-14T00:02:32.476Z,51.43
2023-04-14T00:03:35.764Z,51.44
2023-04-14T00:04:39.308Z,51.42
2023-04-14T00:05:42.537Z,51.45
2023-04-14T00:06:45.281Z,51.44
2023-04-14T00:07:49.682Z,51.39
2023-04-14T00:08:53.004Z,51.39
2023-04-14T00:09:56.114Z,51.38
2023-04-14T00:10:59.918Z,51.37
2023-04-14T00:12:03.313Z,51.36
2023-04-14T00:13:06.615Z,51.32
2023-04-14T00:14:10.021Z,51.32
2023-04-14T00:15:13.902Z,51.30
2023-04-14T00:16:17.434Z,51.30
2023-04-14T00:17:20.752Z,51.30
2023-04-14T00:18:24.151Z,51.30
2023-04-14T00:19:27.547Z,51.29
2023-04-14T00:20:31.842Z,51.29
2023-04-14T00:21:37.180Z,51.25
2023-04-14T00:22:40.366Z,51.23
2023-04-14T00:23:43.171Z,51.20
2023-04-14T00:24:47.050Z,51.15
2023-04-14T00:25:50.632Z,51.12
2023-04-14T00:26:53.561Z,51.10
2023-04-14T00:27:57.089Z,51.09
2023-04-14T00:30:13.430Z,50.98
2023-04-14T00:31:16.478Z,50.97
2023-04-14T00:32:21.768Z,50.94
2023-04-14T00:33:25.546Z,50.94
2023-04-14T00:34:29.738Z,50.92
2023-04-14T00:35:32.422Z,50.92
2023-04-14T00:36:37.367Z,50.91
2023-04-14T00:37:40.551Z,50.87
2023-04-14T00:38:43.431Z,50.83
2023-04-14T00:39:46.442Z,50.86
2023-04-14T00:40:49.457Z,50.85
2023-04-14T00:41:52.680Z,50.84
2023-04-14T00:42:55.621Z,50.84
2023-04-14T00:43:58.581Z,50.85
2023-04-14T00:45:01.507Z,50.83
2023-04-14T00:46:05.533Z,50.84
2023-04-14T00:47:08.496Z,50.84
2023-04-14T00:48:12.313Z,50.84
2023-04-14T00:49:16.207Z,50.79
2023-04-14T00:50:21.354Z,50.82
2023-04-14T00:51:24.432Z,50.80
2023-04-14T00:52:28.296Z,50.81
2023-04-14T00:53:32.552Z,50.80
2023-04-14T00:54:35.755Z,50.80
2023-04-14T00:55:39.590Z,50.79
2023-04-14T00:56:42.506Z,50.78
2023-04-14T00:57:46.262Z,50.76
2023-04-14T00:58:50.447Z,50.76
2023-04-14T00:59:53.547Z,50.75
2023-04-14T01:00:57.919Z,50.75
2023-04-14T01:02:01.182Z,50.75
2023-04-14T01:03:04.232Z,50.74
2023-04-14T01:04:08.025Z,50.73
2023-04-14T01:05:12.868Z,50.74
2023-04-14T01:06:18.749Z,50.74
2023-04-14T01:07:23.170Z,50.72
2023-04-14T01:08:26.680Z,50.74
2023-04-14T01:09:31.147Z,50.72
2023-04-14T01:10:38.648Z,50.71
2023-04-14T01:11:45.655Z,50.72
2023-04-14T01:13:18.831Z,50.75
2023-04-14T01:14:43.346Z,50.73
2023-04-14T01:15:49.465Z,50.72
2023-04-14T01:16:56.632Z,50.77
2023-04-14T01:18:33.690Z,50.85
2023-04-14T01:20:04.538Z,50.90
2023-04-14T01:21:11.369Z,50.91
2023-04-14T01:22:15.019Z,50.92
2023-04-14T01:23:26.540Z,50.95
2023-04-14T01:26:22.940Z,51.00
2023-04-14T01:27:43.814Z,50.98
2023-04-14T01:29:10.122Z,52.04
2023-04-14T01:30:33.657Z,52.85
2023-04-14T01:31:49.464Z,53.07
2023-04-14T01:32:52.687Z,53.16
2023-04-14T01:35:20.221Z,53.77
2023-04-14T01:36:26.723Z,53.77
2023-04-14T01:38:45.897Z,54.14
2023-04-14T01:39:52.629Z,54.04
2023-04-14T01:40:59.317Z,54.20
2023-04-14T01:42:04.431Z,54.25
2023-04-14T01:43:11.013Z,54.42
2023-04-14T01:44:18.271Z,54.47
2023-04-14T01:45:26.936Z,54.63
2023-04-14T01:46:30.844Z,54.59
2023-04-14T01:47:35.457Z,54.62
2023-04-14T01:48:38.278Z,54.69
2023-04-14T01:49:42.220Z,54.88
2023-04-14T01:50:46.151Z,54.90
2023-04-14T01:51:49.172Z,54.84
2023-04-14T01:52:53.688Z,54.89
2023-04-14T01:53:56.857Z,55.00
2023-04-14T01:55:02.368Z,54.99
2023-04-14T01:56:06.615Z,55.06
2023-04-14T01:57:09.306Z,55.06
2023-04-14T01:58:13.482Z,55.05
2023-04-14T01:59:16.432Z,54.99
2023-04-14T02:01:33.228Z,55.11
2023-04-14T02:02:37.908Z,55.04
2023-04-14T02:03:42.850Z,55.10
2023-04-14T02:04:47.018Z,55.11
2023-04-14T02:05:53.173Z,55.10
2023-04-14T02:06:56.775Z,54.99
2023-04-14T02:07:59.821Z,54.95
2023-04-14T02:09:05.108Z,54.86
2023-04-14T02:10:09.174Z,54.83
2023-04-14T02:11:13.897Z,54.81
2023-04-14T02:12:18.521Z,54.89
2023-04-14T02:13:21.491Z,54.90
2023-04-14T02:14:25.852Z,54.96
2023-04-14T02:16:41.900Z,54.90
2023-04-14T02:17:46.895Z,54.85
2023-04-14T02:18:49.877Z,54.90
2023-04-14T02:19:53.847Z,54.83
2023-04-14T02:20:58.280Z,54.81
2023-04-14T02:22:00.917Z,54.77
2023-04-14T02:23:03.860Z,54.78
2023-04-14T02:24:07.662Z,54.71
2023-04-14T02:25:12.446Z,54.72
2023-04-14T02:26:17.176Z,54.71
2023-04-14T02:27:24.203Z,54.48
2023-04-14T02:29:44.607Z,54.68
2023-04-14T02:30:50.940Z,54.60
2023-04-14T02:32:06.549Z,54.58
2023-04-14T02:33:10.366Z,54.55
2023-04-14T02:34:14.073Z,54.51
2023-04-14T02:35:19.127Z,54.49
2023-04-14T02:36:38.616Z,54.50
2023-04-14T02:37:44.095Z,54.49
2023-04-14T02:38:56.011Z,54.51
2023-04-14T02:40:01.807Z,54.54
2023-04-14T02:42:22.217Z,54.66
2023-04-14T02:43:33.329Z,54.68
2023-04-14T02:44:40.615Z,54.81
2023-04-14T02:45:44.924Z,54.85
2023-04-14T02:46:57.836Z,54.93
2023-04-14T02:48:04.362Z,54.95
2023-04-14T02:49:08.218Z,54.95
2023-04-14T02:50:13.609Z,55.00
2023-04-14T02:51:17.806Z,55.00
2023-04-14T02:52:21.864Z,55.03
2023-04-14T02:53:25.083Z,55.12
2023-04-14T02:54:29.685Z,55.12
2023-04-14T02:55:32.509Z,55.14
2023-04-14T02:56:36.077Z,55.08
2023-04-14T02:57:40.280Z,55.14
2023-04-14T02:58:43.698Z,55.09
2023-04-14T02:59:46.726Z,55.10
2023-04-14T03:00:49.835Z,55.11
2023-04-14T03:01:52.672Z,55.09
2023-04-14T03:02:56.498Z,55.03
2023-04-14T03:03:59.598Z,55.02
2023-04-14T03:05:04.410Z,55.03
2023-04-14T03:06:09.136Z,55.02
2023-04-14T03:07:14.170Z,54.97
2023-04-14T03:08:18.266Z,54.97
2023-04-14T03:09:22.889Z,54.95
2023-04-14T03:10:26.723Z,54.91
2023-04-14T03:11:30.669Z,54.90
2023-04-14T03:12:34.089Z,54.86
2023-04-14T03:13:37.413Z,54.85
2023-04-14T03:14:40.948Z,54.85
2023-04-14T03:15:45.270Z,54.81
2023-04-14T03:16:53.034Z,54.80
2023-04-14T03:17:56.859Z,54.82
2023-04-14T03:19:00.773Z,54.82
2023-04-14T03:20:05.066Z,54.81
2023-04-14T03:21:09.277Z,54.83
2023-04-14T03:22:12.478Z,54.88
2023-04-14T03:23:17.290Z,54.90
2023-04-14T03:24:24.997Z,54.93
2023-04-14T03:25:29.144Z,54.92
2023-04-14T03:26:32.745Z,54.91
2023-04-14T03:27:49.529Z,54.91
2023-04-14T03:28:52.832Z,54.87
2023-04-14T03:29:58.217Z,54.90
2023-04-14T03:31:03.279Z,54.91
2023-04-14T03:32:08.463Z,54.92
2023-04-14T03:33:12.665Z,54.88
2023-04-14T03:34:15.475Z,54.84
2023-04-14T03:35:20.974Z,54.84
2023-04-14T03:36:25.397Z,54.83
2023-04-14T03:37:29.486Z,54.81
2023-04-14T03:38:33.258Z,54.80
2023-04-14T03:39:38.528Z,54.81
2023-04-14T03:40:44.666Z,54.80
2023-04-14T03:41:50.504Z,54.78
2023-04-14T03:42:53.715Z,54.78
2023-04-14T03:43:56.852Z,54.77
2023-04-14T03:45:01.263Z,54.78
2023-04-14T03:46:06.683Z,54.76
2023-04-14T03:47:11.810Z,54.74
2023-04-14T03:48:17.510Z,54.74
2023-04-14T03:49:23.200Z,54.73
2023-04-14T03:50:29.414Z,54.71
2023-04-14T03:51:32.331Z,54.73
2023-04-14T03:52:36.098Z,54.72
2023-04-14T03:53:40.739Z,54.77
2023-04-14T03:54:44.073Z,54.79
2023-04-14T03:55:49.695Z,54.80
2023-04-14T03:56:54.797Z,54.87
2023-04-14T03:57:59.025Z,54.94
2023-04-14T03:59:02.780Z,54.98
2023-04-14T04:00:08.719Z,55.03
2023-04-14T04:01:14.301Z,55.08
2023-04-14T04:02:18.478Z,55.10
2023-04-14T04:03:21.629Z,55.17
2023-04-14T04:04:25.402Z,55.24
2023-04-14T04:05:28.701Z,55.27
2023-04-14T04:06:32.395Z,55.40
2023-04-14T04:08:48.118Z,55.60
2023-04-14T04:09:51.166Z,55.58
2023-04-14T04:10:55.001Z,55.69
2023-04-14T04:11:58.211Z,55.74
2023-04-14T04:13:02.338Z,55.83
2023-04-14T04:14:07.073Z,55.88
2023-04-14T04:15:11.378Z,55.92
2023-04-14T04:16:14.700Z,55.91
2023-04-14T04:17:19.187Z,55.90
2023-04-14T04:18:23.081Z,55.91
2023-04-14T04:19:25.905Z,55.78
2023-04-14T04:20:29.127Z,55.67
2023-04-14T04:21:34.198Z,55.61
2023-04-14T04:22:38.665Z,55.46
2023-04-14T04:23:41.936Z,55.33
2023-04-14T04:24:45.214Z,55.19
2023-04-14T04:25:50.039Z,55.10
2023-04-14T04:26:55.215Z,54.99
2023-04-14T04:27:58.812Z,54.87
2023-04-14T04:29:04.871Z,54.73
2023-04-14T04:30:09.362Z,54.58
2023-04-14T04:31:13.807Z,54.50
2023-04-14T04:32:17.610Z,54.39
2023-04-14T04:33:21.932Z,54.28
2023-04-14T04:34:25.025Z,54.32
2023-04-14T04:35:28.546Z,54.07
2023-04-14T04:36:31.531Z,53.93
2023-04-14T04:37:35.555Z,53.81
2023-04-14T04:38:38.606Z,53.75
2023-04-14T04:39:42.325Z,53.67
2023-04-14T04:40:47.513Z,53.54
2023-04-14T04:42:06.075Z,53.45
2023-04-14T04:43:09.018Z,53.36
2023-04-14T04:44:12.828Z,53.18
2023-04-14T04:46:48.217Z,52.88
2023-04-14T04:47:51.584Z,52.90
2023-04-14T04:48:54.577Z,52.80
2023-04-14T04:49:57.824Z,52.75
2023-04-14T04:51:02.414Z,52.65
2023-04-14T04:52:18.747Z,52.63
2023-04-14T04:53:23.963Z,52.54
2023-04-14T04:54:26.799Z,52.56
2023-04-14T04:55:29.845Z,52.49
2023-04-14T04:56:33.477Z,52.42
2023-04-14T04:57:37.430Z,52.36
2023-04-14T04:58:41.249Z,52.32
2023-04-14T04:59:44.296Z,52.41
2023-04-14T05:00:47.952Z,52.41
2023-04-14T05:01:50.782Z,52.40
2023-04-14T05:02:54.166Z,52.37
2023-04-14T05:03:57.018Z,52.36
2023-04-14T05:05:00.165Z,52.34
2023-04-14T05:06:03.672Z,52.36
2023-04-14T05:07:07.293Z,52.38
2023-04-14T05:08:11.362Z,52.38
2023-04-14T05:09:14.893Z,52.38
2023-04-14T05:10:18.577Z,52.36
2023-04-14T05:11:23.288Z,52.37
2023-04-14T05:12:25.985Z,52.38
2023-04-14T05:13:30.182Z,52.40
2023-04-14T05:14:33.007Z,52.42
2023-04-14T05:15:36.433Z,52.40
2023-04-14T05:16:39.645Z,52.41
2023-04-14T05:17:43.293Z,52.40
2023-04-14T05:18:47.223Z,52.41
2023-04-14T05:19:50.264Z,52.37
2023-04-14T05:21:06.571Z,52.39
2023-04-14T05:22:10.269Z,52.38
2023-04-14T05:23:13.488Z,52.38
2023-04-14T05:24:16.924Z,52.44
2023-04-14T05:25:19.946Z,52.47
2023-04-14T05:27:29.550Z,52.48
2023-04-14T05:28:35.266Z,52.52
2023-04-14T05:29:38.554Z,52.52
2023-04-14T05:30:42.478Z,52.53
2023-04-14T05:31:45.732Z,52.54
2023-04-14T05:32:48.723Z,52.56
2023-04-14T05:33:51.805Z,52.56
2023-04-14T05:34:54.274Z,52.59
2023-04-14T05:35:56.844Z,52.59
2023-04-14T05:37:01.689Z,52.62
2023-04-14T05:38:04.690Z,52.62
2023-04-14T05:39:09.160Z,52.63
2023-04-14T05:40:14.673Z,52.63
2023-04-14T05:41:17.566Z,52.61
2023-04-14T05:42:20.898Z,52.56
2023-04-14T05:43:24.034Z,52.59
2023-04-14T05:44:27.049Z,52.59
2023-04-14T05:45:30.260Z,52.55
2023-04-14T05:46:33.720Z,52.53
2023-04-14T05:47:36.780Z,52.54
2023-04-14T05:48:39.750Z,52.49
2023-04-14T05:49:42.590Z,52.51
2023-04-14T05:50:45.551Z,52.48
2023-04-14T05:51:48.418Z,52.45
2023-04-14T05:52:51.564Z,52.45
2023-04-14T05:53:54.968Z,52.43
2023-04-14T05:54:57.581Z,52.44
2023-04-14T05:56:00.807Z,52.40
2023-04-14T05:57:04.430Z,52.39
2023-04-14T05:58:09.248Z,52.39
2023-04-14T05:59:12.570Z,52.39
2023-04-14T06:00:17.558Z,52.37
2023-04-14T06:01:22.416Z,52.37
2023-04-14T06:02:25.461Z,52.33
2023-04-14T06:04:43.874Z,52.30
2023-04-14T06:05:47.741Z,52.37
2023-04-14T06:06:51.690Z,52.37
2023-04-14T06:07:54.666Z,52.31
2023-04-14T06:08:57.293Z,52.33
2023-04-14T06:10:01.118Z,52.31
2023-04-14T06:11:07.715Z,52.29
2023-04-14T06:13:26.640Z,52.26
2023-04-14T06:14:31.420Z,52.22
2023-04-14T06:15:34.658Z,52.22
2023-04-14T06:16:38.170Z,52.18
2023-04-14T06:17:41.224Z,52.16
2023-04-14T06:18:43.931Z,52.15
2023-04-14T06:19:49.562Z,52.10
2023-04-14T06:20:54.845Z,52.12
2023-04-14T06:21:58.858Z,52.08
2023-04-14T06:23:02.607Z,52.11
2023-04-14T06:24:06.303Z,52.06
2023-04-14T06:25:10.611Z,52.08
2023-04-14T06:26:14.803Z,52.08
2023-04-14T06:27:17.581Z,52.08
2023-04-14T06:28:22.149Z,52.13
2023-04-14T06:29:25.595Z,52.13
2023-04-14T06:30:31.819Z,52.09
2023-04-14T06:31:36.230Z,52.05
2023-04-14T06:32:39.943Z,52.07
2023-04-14T06:33:42.808Z,52.04
2023-04-14T06:34:47.436Z,52.00
2023-04-14T06:35:50.753Z,51.96
2023-04-14T06:36:56.559Z,51.98
2023-04-14T06:37:59.734Z,51.95
2023-04-14T06:39:03.240Z,51.96
2023-04-14T06:40:07.865Z,51.97
2023-04-14T06:41:11.832Z,51.98
2023-04-14T06:42:14.936Z,51.98
2023-04-14T06:43:17.631Z,51.97
2023-04-14T06:44:20.432Z,52.13
2023-04-14T06:45:24.410Z,52.13
2023-04-14T06:46:27.984Z,51.93
2023-04-14T06:47:31.715Z,51.93
2023-04-14T06:48:34.546Z,51.93
2023-04-14T06:49:37.696Z,51.94
2023-04-14T06:50:42.077Z,51.90
2023-04-14T06:51:45.903Z,51.88
2023-04-14T06:52:50.192Z,51.95
2023-04-14T06:53:53.005Z,51.95
2023-04-14T06:54:56.183Z,51.91
2023-04-14T06:55:59.226Z,51.86
2023-04-14T06:57:04.529Z,51.85
2023-04-14T06:58:07.710Z,51.83
2023-04-14T06:59:11.670Z,51.81
2023-04-14T07:00:16.408Z,51.78
2023-04-14T07:01:19.177Z,51.78
2023-04-14T07:02:21.963Z,51.73
2023-04-14T07:03:25.399Z,51.76
2023-04-14T07:04:30.150Z,51.70
2023-04-14T07:05:33.573Z,51.75
2023-04-14T07:06:36.985Z,51.74
2023-04-14T07:07:39.851Z,51.73
2023-04-14T07:08:44.030Z,51.70
2023-04-14T07:09:46.986Z,51.73
2023-04-14T07:10:49.983Z,51.74
2023-04-14T07:11:53.028Z,51.69
2023-04-14T07:12:56.890Z,51.68
2023-04-14T07:14:00.543Z,51.73
2023-04-14T07:15:04.306Z,51.73
2023-04-14T07:16:08.062Z,51.72
2023-04-14T07:17:11.718Z,51.75
2023-04-14T07:18:14.922Z,51.68
2023-04-14T07:19:18.092Z,51.69
2023-04-14T07:20:21.328Z,51.70
2023-04-14T07:21:25.546Z,51.69
2023-04-14T07:22:29.377Z,51.68
2023-04-14T07:23:33.135Z,51.70
2023-04-14T07:24:38.154Z,51.71
2023-04-14T07:25:41.192Z,51.68
2023-04-14T07:26:44.071Z,51.69
2023-04-14T07:28:00.375Z,51.67
2023-04-14T07:28:53.611Z,51.62
2023-04-14T07:29:58.415Z,51.67
2023-04-14T07:31:09.472Z,51.63
2023-04-14T07:32:13.822Z,51.63
2023-04-14T07:33:21.363Z,51.63
2023-04-14T07:34:24.478Z,51.65
2023-04-14T07:35:27.728Z,51.60
2023-04-14T07:36:31.977Z,51.59
2023-04-14T07:37:35.521Z,51.59
2023-04-14T07:38:38.444Z,51.63
2023-04-14T07:39:42.533Z,51.59
2023-04-14T07:40:46.483Z,51.59
2023-04-14T07:41:49.264Z,51.59
2023-04-14T07:42:52.159Z,51.54
2023-04-14T07:43:58.165Z,51.54
2023-04-14T07:45:04.544Z,51.53
2023-04-14T07:46:08.807Z,51.49
2023-04-14T07:47:11.863Z,51.49
2023-04-14T07:48:14.687Z,51.44
2023-04-14T07:49:18.082Z,51.44
2023-04-14T07:50:22.228Z,51.41
2023-04-14T07:51:25.279Z,51.41
2023-04-14T07:52:28.629Z,51.39
2023-04-14T07:53:32.285Z,51.35
2023-04-14T07:54:35.088Z,51.32
2023-04-14T07:55:37.957Z,51.30
2023-04-14T07:56:42.333Z,51.26
2023-04-14T07:57:46.642Z,51.34
2023-04-14T07:58:49.939Z,51.37
2023-04-14T07:59:52.544Z,51.45
2023-04-14T08:00:57.826Z,51.56
2023-04-14T08:02:02.306Z,51.54
2023-04-14T08:03:05.220Z,51.44
2023-04-14T08:04:08.814Z,51.19
2023-04-14T08:05:12.720Z,50.87
2023-04-14T08:06:16.435Z,50.96
2023-04-14T08:07:20.422Z,50.60
2023-04-14T08:08:24.679Z,50.24
2023-04-14T08:09:29.582Z,49.01
2023-04-14T08:10:34.233Z,47.88
2023-04-14T08:11:37.430Z,48.09
2023-04-14T08:12:40.640Z,48.90
2023-04-14T08:13:44.703Z,49.16
2023-04-14T08:14:48.491Z,49.22
2023-04-14T08:15:51.854Z,49.25
2023-04-14T08:16:55.681Z,49.21
2023-04-14T08:17:58.875Z,49.22
2023-04-14T08:19:03.471Z,49.12
2023-04-14T08:20:08.664Z,49.15
2023-04-14T08:21:12.490Z,49.03
2023-04-14T08:22:15.243Z,49.09
2023-04-14T08:23:18.094Z,48.45
2023-04-14T08:24:21.609Z,48.72
2023-04-14T08:25:24.788Z,48.73
2023-04-14T08:26:28.619Z,48.77
2023-04-14T08:27:32.035Z,48.79
2023-04-14T08:28:35.163Z,48.70
2023-04-14T08:29:37.990Z,48.48
2023-04-14T08:30:41.499Z,48.60
2023-04-14T08:31:44.945Z,48.59
2023-04-14T08:32:49.249Z,48.54
2023-04-14T08:33:52.881Z,48.47
2023-04-14T08:35:36.303Z,48.12
2023-04-14T08:36:01.103Z,48.30
2023-04-14T08:37:04.391Z,48.36
2023-04-14T08:38:07.388Z,48.01
2023-04-14T08:39:11.153Z,47.84
2023-04-14T08:40:16.117Z,48.21
2023-04-14T08:42:35.193Z,48.19
2023-04-14T08:43:37.942Z,48.16
2023-04-14T08:44:41.229Z,47.35
2023-04-14T08:45:44.147Z,47.75
2023-04-14T08:46:48.718Z,47.92
2023-04-14T08:47:51.473Z,48.01
2023-04-14T08:48:58.188Z,48.03
2023-04-14T08:51:28.156Z,48.18
2023-04-14T08:52:31.558Z,48.24
2023-04-14T08:53:35.098Z,48.35
2023-04-14T08:54:40.707Z,48.36
2023-04-14T08:55:43.943Z,48.41
2023-04-14T08:56:46.822Z,48.48
2023-04-14T08:57:50.310Z,48.59
2023-04-14T08:58:54.849Z,48.64
2023-04-14T09:00:00.494Z,48.67
2023-04-14T09:01:05.571Z,48.69
2023-04-14T09:02:09.344Z,48.73
2023-04-14T09:03:13.838Z,48.79
2023-04-14T09:04:19.726Z,48.85
2023-04-14T09:05:23.898Z,48.90
2023-04-14T09:06:28.858Z,48.90
2023-04-14T09:07:33.844Z,48.95
2023-04-14T09:08:37.378Z,48.98
2023-04-14T09:09:58.050Z,49.01
2023-04-14T09:11:05.541Z,49.08
2023-04-14T09:12:09.885Z,49.10
2023-04-14T09:13:18.055Z,49.15
2023-04-14T09:15:53.759Z,49.21
2023-04-14T09:16:57.581Z,49.21
2023-04-14T09:18:02.432Z,49.23
2023-04-14T09:19:06.415Z,49.27
2023-04-14T09:20:38.636Z,49.28
2023-04-14T09:21:49.592Z,49.32
2023-04-14T09:22:27.360Z,49.29
2023-04-14T09:23:31.467Z,49.26
2023-04-14T09:24:35.527Z,49.34
2023-04-14T09:25:40.422Z,49.40
2023-04-14T09:26:44.437Z,49.46
2023-04-14T09:27:49.509Z,49.52
2023-04-14T09:28:52.308Z,49.59
2023-04-14T09:29:59.141Z,49.61
2023-04-14T09:31:02.612Z,49.59
2023-04-14T09:32:06.162Z,49.59
2023-04-14T09:34:23.409Z,49.60
2023-04-14T09:35:30.077Z,49.61
2023-04-14T09:37:48.216Z,49.67
2023-04-14T09:38:51.270Z,49.65
2023-04-14T09:39:55.692Z,49.64
2023-04-14T09:40:58.519Z,49.60
2023-04-14T09:42:03.606Z,49.51
2023-04-14T09:43:06.717Z,49.51
2023-04-14T09:44:10.025Z,49.51
2023-04-14T09:45:13.272Z,49.55
2023-04-14T09:46:18.488Z,49.56
2023-04-14T09:47:25.310Z,49.49
2023-04-14T09:48:28.918Z,49.45
2023-04-14T09:49:35.154Z,49.43
2023-04-14T09:52:15.521Z,49.22
2023-04-14T09:53:29.753Z,49.21
2023-04-14T09:54:35.441Z,49.19
2023-04-14T09:56:57.231Z,49.12
2023-04-14T09:58:01.421Z,49.15
2023-04-14T09:59:07.465Z,49.12
2023-04-14T10:01:34.901Z,49.09
2023-04-14T10:02:51.731Z,49.09
2023-04-14T10:03:54.896Z,49.10
2023-04-14T10:05:07.911Z,49.09
2023-04-14T10:07:46.554Z,49.04
2023-04-14T10:08:51.119Z,49.05
2023-04-14T10:09:56.304Z,49.01
2023-04-14T10:12:23.854Z,48.98
2023-04-14T10:13:26.962Z,49.00
2023-04-14T10:14:30.074Z,49.06
2023-04-14T10:15:33.343Z,49.12
2023-04-14T10:16:37.012Z,49.15
2023-04-14T10:17:43.273Z,49.17
2023-04-14T10:20:15.975Z,49.14
2023-04-14T10:21:21.389Z,49.14
2023-04-14T10:22:27.712Z,49.17
2023-04-14T10:23:31.825Z,49.19
2023-04-14T10:24:37.062Z,49.21
2023-04-14T10:25:42.086Z,49.23
2023-04-14T10:26:47.878Z,49.21
2023-04-14T10:29:06.373Z,49.27
2023-04-14T10:30:13.425Z,49.29
2023-04-14T10:32:44.459Z,49.32
2023-04-14T10:33:48.827Z,49.31
2023-04-14T10:35:11.189Z,49.36
2023-04-14T10:37:40.199Z,49.41
2023-04-14T10:38:45.081Z,49.38
2023-04-14T10:39:56.478Z,49.51
2023-04-14T10:41:00.415Z,49.58
2023-04-14T10:42:03.421Z,49.61
2023-04-14T10:43:07.827Z,49.55
2023-04-14T10:45:53.699Z,49.27
2023-04-14T10:46:57.807Z,49.04
2023-04-14T10:48:00.849Z,48.86
2023-04-14T10:49:04.758Z,49.01
2023-04-14T10:50:14.673Z,49.14
2023-04-14T10:51:17.791Z,49.11
2023-04-14T10:52:25.769Z,49.09
2023-04-14T10:57:09.637Z,48.90
2023-04-14T10:59:47.027Z,48.31
2023-04-14T11:00:49.926Z,48.45
2023-04-14T11:01:54.406Z,47.36
2023-04-14T11:03:03.570Z,47.99
2023-04-14T11:04:19.850Z,48.06
2023-04-14T11:05:24.370Z,48.02
2023-04-14T11:06:47.854Z,48.04
2023-04-14T11:08:01.501Z,47.88
2023-04-14T11:09:04.104Z,47.60
2023-04-14T11:11:36.220Z,47.75
2023-04-14T11:12:43.606Z,47.74
2023-04-14T11:13:47.215Z,47.73
2023-04-14T11:14:50.055Z,47.77
2023-04-14T11:16:07.558Z,47.77
2023-04-14T11:17:11.818Z,47.73
2023-04-14T11:19:47.658Z,47.19
2023-04-14T11:20:52.297Z,47.29
2023-04-14T11:21:55.791Z,46.76
2023-04-14T11:22:59.763Z,47.11
2023-04-14T11:24:04.029Z,46.78
2023-04-14T11:25:09.724Z,46.74
2023-04-14T11:27:28.433Z,46.25
2023-04-14T11:28:34.181Z,46.54
2023-04-14T11:29:36.803Z,46.73
2023-04-14T11:30:40.343Z,46.81
2023-04-14T11:31:43.932Z,46.79
2023-04-14T11:32:51.983Z,46.63
2023-04-14T11:33:55.925Z,45.89
2023-04-14T11:35:06.847Z,46.50
2023-04-14T11:36:11.852Z,46.65
2023-04-14T11:37:14.578Z,45.86
2023-04-14T11:38:17.784Z,46.29
2023-04-14T11:39:22.234Z,46.07
2023-04-14T11:40:26.869Z,46.38
2023-04-14T11:41:29.776Z,46.14
2023-04-14T11:42:33.275Z,46.56
2023-04-14T11:43:38.053Z,46.05
2023-04-14T11:44:41.545Z,46.48
2023-04-14T11:45:44.910Z,46.08
2023-04-14T11:46:47.992Z,46.14
2023-04-14T11:48:02.758Z,46.01
2023-04-14T11:49:06.648Z,45.40
2023-04-14T11:50:11.097Z,45.56
2023-04-14T11:51:14.469Z,45.64
2023-04-14T11:52:19.796Z,45.23
2023-04-14T11:53:23.067Z,45.15
2023-04-14T11:54:32.106Z,45.98
2023-04-14T11:55:35.213Z,46.24
2023-04-14T11:56:39.855Z,46.39
2023-04-14T11:57:55.982Z,46.32
2023-04-14T11:59:03.884Z,46.27
2023-04-14T12:00:10.781Z,46.51
2023-04-14T12:01:14.445Z,46.68
2023-04-14T12:03:34.512Z,46.54
2023-04-14T12:04:38.278Z,46.48
2023-04-14T12:05:41.961Z,46.19
2023-04-14T12:06:45.029Z,46.44
2023-04-14T12:07:50.405Z,46.39
2023-04-14T12:08:54.242Z,46.54
2023-04-14T12:09:58.849Z,46.60
2023-04-14T12:11:12.931Z,46.54
2023-04-14T12:13:30.142Z,46.87
2023-04-14T12:14:33.236Z,46.93
2023-04-14T12:15:37.091Z,47.04
2023-04-14T12:17:54.355Z,47.33
2023-04-14T12:18:57.869Z,47.38
2023-04-14T12:20:00.671Z,47.46
2023-04-14T12:21:06.437Z,47.47
2023-04-14T12:22:09.770Z,47.47
2023-04-14T12:23:12.985Z,47.52
2023-04-14T12:24:16.616Z,47.53
2023-04-14T12:25:19.435Z,47.54
2023-04-14T12:26:23.779Z,47.57
2023-04-14T12:27:28.615Z,47.56
2023-04-14T12:28:33.103Z,47.56
2023-04-14T12:29:36.802Z,47.56
2023-04-14T12:30:40.710Z,47.56
2023-04-14T12:31:44.260Z,47.56
2023-04-14T12:32:48.776Z,47.61
2023-04-14T12:33:54.304Z,47.54
2023-04-14T12:34:58.113Z,47.62
2023-04-14T12:36:07.337Z,47.62
2023-04-14T12:37:11.555Z,47.67
2023-04-14T12:38:15.484Z,47.68
2023-04-14T12:39:21.888Z,47.68
2023-04-14T12:40:43.570Z,47.65
2023-04-14T12:41:47.959Z,47.63
2023-04-14T12:42:51.482Z,47.52
2023-04-14T12:43:55.432Z,47.49
2023-04-14T12:44:59.656Z,47.49
2023-04-14T12:46:03.375Z,47.49
2023-04-14T12:48:19.000Z,47.62
2023-04-14T12:49:37.560Z,47.64
2023-04-14T12:50:40.810Z,47.64
2023-04-14T12:51:44.196Z,47.52
2023-04-14T12:52:47.738Z,46.60
2023-04-14T12:53:51.284Z,47.04
2023-04-14T12:54:55.013Z,47.23
2023-04-14T12:56:09.949Z,46.87
2023-04-14T12:57:13.184Z,46.56
2023-04-14T12:58:17.975Z,46.33
2023-04-14T12:59:20.879Z,46.69
2023-04-14T13:00:26.681Z,46.54
2023-04-14T13:01:30.132Z,46.72
2023-04-14T13:02:34.881Z,46.86
2023-04-14T13:04:53.440Z,46.71
2023-04-14T13:05:56.216Z,46.76
2023-04-14T13:06:59.850Z,46.76
2023-04-14T13:08:02.864Z,46.71
2023-04-14T13:09:05.622Z,46.73
2023-04-14T13:10:09.358Z,46.36
2023-04-14T13:12:26.637Z,46.48
2023-04-14T13:13:29.812Z,46.31
2023-04-14T13:14:32.879Z,46.31
2023-04-14T13:16:14.082Z,46.45
2023-04-14T13:16:41.504Z,46.45
2023-04-14T13:17:45.123Z,46.40
2023-04-14T13:18:48.546Z,46.36
2023-04-14T13:19:52.004Z,46.26
2023-04-14T13:20:55.439Z,46.27
2023-04-14T13:21:59.659Z,45.93
2023-04-14T13:23:04.397Z,46.07
2023-04-14T13:24:07.571Z,45.89
2023-04-14T13:25:10.862Z,46.01
2023-04-14T13:26:16.056Z,45.43
2023-04-14T13:27:19.428Z,45.43
2023-04-14T13:28:22.357Z,45.66
2023-04-14T13:29:27.712Z,45.66
2023-04-14T13:30:41.359Z,45.74
2023-04-14T13:31:45.098Z,45.73
2023-04-14T13:32:48.098Z,45.64
2023-04-14T13:33:52.544Z,45.69
2023-04-14T13:34:56.834Z,45.69
2023-04-14T13:36:01.875Z,45.61
2023-04-14T13:37:06.278Z,45.10
2023-04-14T13:38:09.159Z,45.42
2023-04-14T13:39:12.074Z,45.50
2023-04-14T13:40:16.318Z,45.17
2023-04-14T13:41:19.153Z,45.01
2023-04-14T13:42:22.654Z,45.02
2023-04-14T13:43:25.677Z,45.19
2023-04-14T13:44:28.492Z,45.26
2023-04-14T13:45:31.854Z,45.43
2023-04-14T13:46:40.946Z,45.35
2023-04-14T13:47:39.473Z,45.42
2023-04-14T13:48:45.275Z,45.53
2023-04-14T13:49:48.029Z,45.55
2023-04-14T13:50:51.256Z,45.30
2023-04-14T13:51:54.381Z,45.43
2023-04-14T13:52:57.058Z,45.31
2023-04-14T13:54:00.249Z,45.62
2023-04-14T13:55:03.720Z,45.42
2023-04-14T13:56:07.460Z,45.51
2023-04-14T13:57:10.515Z,45.55
2023-04-14T13:58:13.429Z,45.73
2023-04-14T13:59:16.703Z,45.79
2023-04-14T14:00:21.042Z,45.87
2023-04-14T14:01:25.662Z,45.80
2023-04-14T14:02:29.455Z,45.87
2023-04-14T14:03:32.675Z,45.93
2023-04-14T14:04:37.372Z,45.92
2023-04-14T14:05:40.856Z,45.91
2023-04-14T14:06:44.535Z,45.97
2023-04-14T14:07:47.913Z,45.90
2023-04-14T14:09:06.081Z,45.44
2023-04-14T14:10:11.101Z,45.80
2023-04-14T14:11:14.392Z,45.84
2023-04-14T14:12:17.465Z,45.51
2023-04-14T14:13:25.290Z,45.81
2023-04-14T14:14:31.780Z,45.91
2023-04-14T14:15:35.353Z,45.79
2023-04-14T14:16:39.376Z,46.56
2023-04-14T14:17:42.281Z,47.51
2023-04-14T14:18:46.448Z,48.12
2023-04-14T14:19:49.168Z,48.84
2023-04-14T14:20:52.485Z,49.01
2023-04-14T14:21:55.674Z,49.28
2023-04-14T14:22:59.696Z,49.53
2023-04-14T14:24:03.227Z,49.41
2023-04-14T14:25:19.134Z,49.31
2023-04-14T14:26:13.630Z,49.11
2023-04-14T14:27:16.431Z,48.96
2023-04-14T14:28:21.095Z,48.81
2023-04-14T14:29:25.250Z,48.69
2023-04-14T14:30:28.402Z,48.60
2023-04-14T14:31:32.101Z,48.57
2023-04-14T14:32:35.482Z,48.53
2023-04-14T14:33:39.578Z,48.47
2023-04-14T14:34:44.116Z,48.45
2023-04-14T14:35:47.628Z,48.41
2023-04-14T14:36:51.659Z,48.40
2023-04-14T14:37:54.574Z,48.35
2023-04-14T14:38:58.475Z,48.35
2023-04-14T14:40:02.376Z,48.33
2023-04-14T14:41:05.948Z,48.32
2023-04-14T14:42:09.111Z,48.26
2023-04-14T14:43:11.839Z,48.50
2023-04-14T14:44:15.271Z,48.45
2023-04-14T14:45:27.506Z,48.44
2023-04-14T14:46:24.534Z,48.46
2023-04-14T14:47:29.584Z,48.45
2023-04-14T14:48:32.821Z,48.51